Latest METARs, TAFs and NOTAMs for SEGU


---------------------------------------------------------------------------
	(OBSERVATIONS)
SEGU 291700Z 14004KT 080V180 9999 FEW026 SCT100 31/22 Q1010 NOSIG
    RMK A2982=
SEGU 291600Z 15004KT 040V140 9999 FEW023 31/23 Q1010 NOSIG RMK
    A2984=
SEGU 291500Z 13003KT 050V170 9999 FEW023 29/22 Q1011 NOSIG RMK
    A2986=
---------------------------------------------------------------------------
	(TERMINAL AREA FORECAST)
SEGU 291630Z 2918/3018 15005KT 9999 SCT030
    FM300000 22008KT 9999 BKN020 SCT100
    TEMPO 3001/3004 8000 RA
    FM300600 22006KT 9999 SCT020 SCT100 TX32/2920Z TN24/3011Z=
---------------------------------------------------------------------------
	(NOTAMS)


SEGU A0055/09 APN NORTE CLSD POR INCIDENTE DE ACFT 27 JAN 05:30
    UNTIL 27 JAN 18:00 ESTIMATED

SEGU A0138/17 MOV AREA WIP SUBJ TFC. CTN. 20 FEB 19:25 2017 UNTIL
    18 MAY 04:59 2017. CREATED: 20 FEB 19:26 2017

SEGU A0139/17 WIP IN GREEN AREAS MOV AREA, SUBJ TFC. CTN. 20
    FEB 19:30 2017 UNTIL 18 MAY 04:59 2017. CREATED: 20 FEB 19:30
    2017

SEGU A0224/17 IN PROC TKOF FM TWY CHARLIE: AVBL LEN RWY 21 IS
    1931M REF AIP PAGE AD 2 SEGU 11.2. 24 MAR 20:54 2017 UNTIL
    PERM. CREATED: 24 MAR 20:55 2017

SEGU A0287/17 ASCENT OF FREE BALLOON WILL TAKE PLACE FM STN INOCAR
    COORD 021618.26S 0795414.34W VSP 10 A 13FT/SEC HGT 83000FT.
    CTN. SFC - UNL, MON-FRI 1015-1215, 14 APR 10:15 2017 UNTIL
    15 MAY 12:15 2017 ESTIMATED. CREATED: 13 APR 21:08 2017

SEGU A0322/17 ACFT STAND 20 CLSD DUE TO MAINT, EXCLUDING ACCESS.
    24 APR 21:22 2017 UNTIL 02 MAY 23:00 2017. CREATED: 24 APR
    21:26 2017

SEGU A1463/06 COMBUSTIBLE JET A-1 RESTRINGIDO 20 POR CIENTO 26
    DEC 20:45 2006 UNTIL 04 JAN 23:00 ESTIMATED

SEGU V0267/17 [US DOD PROCEDURAL NOTAM] INSTRUMENT APPROACH PROCEDURE
    NOT AUTHORIZED CSA FLIP VOL-2 DESCENT 2 VOR/DME GYV RWY 21.
    28 APR 12:13 2017 UNTIL 22 JUN 23:59 2017. CREATED: 28 APR
    12:13 2017

---------------------------------------------------------------------------